Allendale, California
Current Conditions -  °F | °C
As of 8:53 AM on Thursday 23 Oct 2014 (Local Time) from KVCB Reporting Station
Clear Clear  
Wind Chill: 19°   Ceiling: Unl
Heat Index: 19°   Visibility: 10mi
Dew Point: 11°   Wind: 0mph
Humidity: 60%   Direction: NA
Pressure: 30.06"   Gusts: NA
Location:  38.4195°N, 122.026°W
Report Text: KVCB 231553Z AUTO 00000KT 10SM CLR 19/11 A3006 RMK AO2 SLP179 T01890111 TSNO
Loading
Personal Weather Stations






























Interactive Weather Map
Tropical Storm Tracking
New forecast layout! Learn more

10-Day Weather Forecast

Advertisements
Track Severe Weather on mobile